Molunkus Township, Maine
Current Conditions -  °F | °C
As of 4:53 AM on Tuesday 27 Jan 2015 (Local Time) from KMLT Reporting Station
Overcast Overcast  
Wind Chill: -10°   Ceiling: 9000
Heat Index:   Visibility: 10mi
Dew Point: -8°   Wind: 13mph
Humidity: 53%   Direction: 40°NE
Pressure: 30.1"   Gusts: 24mph
Location:  45.574°N, 68.322°W
Report Text: KMLT 270953Z AUTO 04011G21KT 10SM OVC090 M14/M22 A3010 RMK AO2 SLP206 T11441222
Loading
Personal Weather Stations






























Interactive Weather Map New forecast layout! Learn more

10-Day Weather Forecast

Advertisements
Track Severe Weather on mobile